sensor_id;sensor_type;location;lat;lon;timestamp;pressure;altitude;pressure_sealevel;temperature;humidity
44213;BME280;29882;46.356;17.798;2022-07-15T00:00:12;99549.16;;;23.44;50.16
44213;BME280;29882;46.356;17.798;2022-07-15T00:02:40;99545.13;;;23.51;49.28
44213;BME280;29882;46.356;17.798;2022-07-15T00:05:08;99548.28;;;23.60;49.38
44213;BME280;29882;46.356;17.798;2022-07-15T00:07:36;99546.09;;;23.62;49.16
44213;BME280;29882;46.356;17.798;2022-07-15T00:10:04;99542.03;;;23.65;49.14
44213;BME280;29882;46.356;17.798;2022-07-15T00:15:18;99541.44;;;23.63;49.33
44213;BME280;29882;46.356;17.798;2022-07-15T00:17:49;99531.47;;;23.57;49.75
44213;BME280;29882;46.356;17.798;2022-07-15T00:20:18;99533.38;;;23.56;49.88
44213;BME280;29882;46.356;17.798;2022-07-15T00:22:46;99534.28;;;23.62;48.83
44213;BME280;29882;46.356;17.798;2022-07-15T00:25:14;99525.75;;;23.63;48.83
44213;BME280;29882;46.356;17.798;2022-07-15T00:27:52;99526.03;;;23.62;49.55
44213;BME280;29882;46.356;17.798;2022-07-15T00:30:20;99528.44;;;23.58;49.40
44213;BME280;29882;46.356;17.798;2022-07-15T00:32:47;99527.88;;;23.56;49.58
44213;BME280;29882;46.356;17.798;2022-07-15T00:35:15;99521.53;;;23.56;49.12
44213;BME280;29882;46.356;17.798;2022-07-15T00:37:42;99513.22;;;23.50;49.96
44213;BME280;29882;46.356;17.798;2022-07-15T00:40:10;99525.00;;;23.46;49.79
44213;BME280;29882;46.356;17.798;2022-07-15T00:42:39;99522.00;;;23.47;50.08
44213;BME280;29882;46.356;17.798;2022-07-15T00:45:20;99521.94;;;23.42;49.88
44213;BME280;29882;46.356;17.798;2022-07-15T00:47:49;99532.34;;;23.40;49.66
44213;BME280;29882;46.356;17.798;2022-07-15T00:50:18;99525.75;;;23.41;49.96
44213;BME280;29882;46.356;17.798;2022-07-15T00:52:56;99528.78;;;23.40;49.84
44213;BME280;29882;46.356;17.798;2022-07-15T00:55:24;99528.00;;;23.44;50.26
44213;BME280;29882;46.356;17.798;2022-07-15T00:57:57;99529.53;;;23.35;50.28
44213;BME280;29882;46.356;17.798;2022-07-15T01:00:26;99525.06;;;23.29;50.44
44213;BME280;29882;46.356;17.798;2022-07-15T01:02:54;99520.41;;;23.30;50.76
44213;BME280;29882;46.356;17.798;2022-07-15T01:05:22;99521.81;;;23.32;50.66
44213;BME280;29882;46.356;17.798;2022-07-15T01:07:49;99505.56;;;23.31;50.77
44213;BME280;29882;46.356;17.798;2022-07-15T01:10:19;99507.41;;;23.25;51.31
44213;BME280;29882;46.356;17.798;2022-07-15T01:12:48;99517.56;;;23.25;51.48
44213;BME280;29882;46.356;17.798;2022-07-15T01:15:19;99514.53;;;23.21;51.38
44213;BME280;29882;46.356;17.798;2022-07-15T01:17:46;99524.09;;;23.18;51.60
44213;BME280;29882;46.356;17.798;2022-07-15T01:20:15;99509.97;;;23.10;52.51
44213;BME280;29882;46.356;17.798;2022-07-15T01:22:54;99505.75;;;23.02;52.51
44213;BME280;29882;46.356;17.798;2022-07-15T01:25:25;99511.56;;;23.06;52.25
44213;BME280;29882;46.356;17.798;2022-07-15T01:27:53;99505.25;;;23.05;52.54
44213;BME280;29882;46.356;17.798;2022-07-15T01:30:25;99507.66;;;23.02;52.75
44213;BME280;29882;46.356;17.798;2022-07-15T01:32:52;99516.22;;;23.05;52.48
44213;BME280;29882;46.356;17.798;2022-07-15T01:35:19;99524.47;;;23.05;52.68
44213;BME280;29882;46.356;17.798;2022-07-15T01:37:48;99536.25;;;23.01;53.23
44213;BME280;29882;46.356;17.798;2022-07-15T01:40:16;99548.63;;;23.03;52.71
44213;BME280;29882;46.356;17.798;2022-07-15T01:42:44;99561.63;;;22.91;53.30
44213;BME280;29882;46.356;17.798;2022-07-15T01:45:13;99581.38;;;22.88;53.42
44213;BME280;29882;46.356;17.798;2022-07-15T01:47:47;99596.69;;;22.84;53.54
44213;BME280;29882;46.356;17.798;2022-07-15T01:50:38;99564.72;;;22.61;54.46
44213;BME280;29882;46.356;17.798;2022-07-15T01:53:11;99573.72;;;22.56;55.09
44213;BME280;29882;46.356;17.798;2022-07-15T01:55:39;99573.38;;;22.53;55.44
44213;BME280;29882;46.356;17.798;2022-07-15T01:58:06;99628.63;;;22.40;56.12
44213;BME280;29882;46.356;17.798;2022-07-15T02:00:34;99586.22;;;22.19;57.88
44213;BME280;29882;46.356;17.798;2022-07-15T02:03:01;99598.84;;;21.91;59.22
44213;BME280;29882;46.356;17.798;2022-07-15T02:05:28;99608.91;;;21.74;60.69
44213;BME280;29882;46.356;17.798;2022-07-15T02:07:56;99578.22;;;21.60;61.76
44213;BME280;29882;46.356;17.798;2022-07-15T02:10:24;99606.28;;;21.79;61.90
44213;BME280;29882;46.356;17.798;2022-07-15T02:12:52;99593.63;;;21.49;63.53
44213;BME280;29882;46.356;17.798;2022-07-15T02:15:25;99596.50;;;21.43;64.16
44213;BME280;29882;46.356;17.798;2022-07-15T02:17:55;99573.53;;;21.32;65.22
44213;BME280;29882;46.356;17.798;2022-07-15T02:20:27;99567.41;;;21.18;65.99
44213;BME280;29882;46.356;17.798;2022-07-15T02:22:55;99549.44;;;21.22;66.03
44213;BME280;29882;46.356;17.798;2022-07-15T02:25:25;99551.81;;;21.19;66.69
44213;BME280;29882;46.356;17.798;2022-07-15T02:28:06;99559.56;;;21.22;66.80
44213;BME280;29882;46.356;17.798;2022-07-15T02:30:36;99562.19;;;21.17;67.29
44213;BME280;29882;46.356;17.798;2022-07-15T02:33:05;99562.44;;;21.15;67.86
44213;BME280;29882;46.356;17.798;2022-07-15T02:35:33;99578.88;;;21.15;68.36
44213;BME280;29882;46.356;17.798;2022-07-15T02:38:01;99578.53;;;21.12;68.54
44213;BME280;29882;46.356;17.798;2022-07-15T02:40:31;99599.34;;;21.01;69.55
44213;BME280;29882;46.356;17.798;2022-07-15T02:43:00;99616.75;;;20.95;70.46
44213;BME280;29882;46.356;17.798;2022-07-15T02:45:33;99618.53;;;20.89;71.17
44213;BME280;29882;46.356;17.798;2022-07-15T02:48:04;99626.28;;;20.92;71.45
44213;BME280;29882;46.356;17.798;2022-07-15T02:50:35;99640.69;;;20.88;72.35
44213;BME280;29882;46.356;17.798;2022-07-15T02:53:03;99641.19;;;20.96;72.12
44213;BME280;29882;46.356;17.798;2022-07-15T02:55:34;99647.97;;;21.06;72.39
44213;BME280;29882;46.356;17.798;2022-07-15T02:58:01;99644.84;;;21.02;72.31
44213;BME280;29882;46.356;17.798;2022-07-15T03:00:29;99660.00;;;21.05;73.05
44213;BME280;29882;46.356;17.798;2022-07-15T03:03:01;99650.81;;;20.99;73.76
44213;BME280;29882;46.356;17.798;2022-07-15T03:05:29;99649.84;;;20.93;74.75
44213;BME280;29882;46.356;17.798;2022-07-15T03:07:56;99660.34;;;20.96;75.01
44213;BME280;29882;46.356;17.798;2022-07-15T03:10:24;99653.56;;;20.99;75.74
44213;BME280;29882;46.356;17.798;2022-07-15T03:12:51;99651.31;;;20.96;76.78
44213;BME280;29882;46.356;17.798;2022-07-15T03:15:18;99649.63;;;20.95;76.74
44213;BME280;29882;46.356;17.798;2022-07-15T03:17:46;99654.50;;;20.93;77.36
44213;BME280;29882;46.356;17.798;2022-07-15T03:20:13;99663.53;;;20.93;78.02
44213;BME280;29882;46.356;17.798;2022-07-15T03:22:49;99666.53;;;20.92;78.40
44213;BME280;29882;46.356;17.798;2022-07-15T03:25:16;99671.66;;;20.88;78.87
44213;BME280;29882;46.356;17.798;2022-07-15T03:27:43;99675.22;;;20.89;78.79
44213;BME280;29882;46.356;17.798;2022-07-15T03:30:12;99667.34;;;20.81;79.78
44213;BME280;29882;46.356;17.798;2022-07-15T03:32:41;99670.56;;;20.78;80.86
44213;BME280;29882;46.356;17.798;2022-07-15T03:35:10;99668.19;;;20.81;81.11
44213;BME280;29882;46.356;17.798;2022-07-15T03:37:38;99668.66;;;20.78;82.23
44213;BME280;29882;46.356;17.798;2022-07-15T03:40:06;99668.28;;;20.75;83.20
44213;BME280;29882;46.356;17.798;2022-07-15T03:42:36;99676.41;;;20.81;82.99
44213;BME280;29882;46.356;17.798;2022-07-15T03:45:03;99681.53;;;20.78;83.60
44213;BME280;29882;46.356;17.798;2022-07-15T03:47:31;99686.84;;;20.73;84.51
44213;BME280;29882;46.356;17.798;2022-07-15T03:50:02;99688.53;;;20.74;84.73
44213;BME280;29882;46.356;17.798;2022-07-15T03:52:33;99693.50;;;20.65;85.79
44213;BME280;29882;46.356;17.798;2022-07-15T03:55:00;99690.16;;;20.63;85.98
44213;BME280;29882;46.356;17.798;2022-07-15T03:57:29;99697.69;;;20.67;86.38
44213;BME280;29882;46.356;17.798;2022-07-15T03:59:56;99707.81;;;20.67;86.74
44213;BME280;29882;46.356;17.798;2022-07-15T04:02:24;99708.25;;;20.64;87.87
44213;BME280;29882;46.356;17.798;2022-07-15T04:04:51;99712.91;;;20.63;89.83
44213;BME280;29882;46.356;17.798;2022-07-15T04:07:19;99718.03;;;20.72;89.65
44213;BME280;29882;46.356;17.798;2022-07-15T04:09:46;99706.63;;;20.75;89.90
44213;BME280;29882;46.356;17.798;2022-07-15T04:12:14;99720.81;;;20.83;90.53
44213;BME280;29882;46.356;17.798;2022-07-15T04:14:41;99734.50;;;20.83;91.33
44213;BME280;29882;46.356;17.798;2022-07-15T04:17:08;99736.16;;;20.84;91.44
44213;BME280;29882;46.356;17.798;2022-07-15T04:19:39;99740.72;;;20.90;91.21
44213;BME280;29882;46.356;17.798;2022-07-15T04:22:06;99747.88;;;20.91;92.25
44213;BME280;29882;46.356;17.798;2022-07-15T04:24:41;99748.09;;;20.90;92.97
44213;BME280;29882;46.356;17.798;2022-07-15T04:27:12;99748.44;;;20.93;93.37
44213;BME280;29882;46.356;17.798;2022-07-15T04:29:39;99748.25;;;20.95;92.63
44213;BME280;29882;46.356;17.798;2022-07-15T04:32:09;99755.25;;;21.03;92.48
44213;BME280;29882;46.356;17.798;2022-07-15T04:34:40;99761.97;;;21.07;92.26
44213;BME280;29882;46.356;17.798;2022-07-15T04:37:07;99757.56;;;21.06;93.39
44213;BME280;29882;46.356;17.798;2022-07-15T04:39:37;99757.06;;;21.09;93.36
44213;BME280;29882;46.356;17.798;2022-07-15T04:42:05;99755.53;;;21.13;94.01
44213;BME280;29882;46.356;17.798;2022-07-15T04:44:35;99753.16;;;21.16;94.09
44213;BME280;29882;46.356;17.798;2022-07-15T04:47:05;99760.44;;;21.22;93.55
44213;BME280;29882;46.356;17.798;2022-07-15T04:49:39;99771.09;;;21.31;92.93
44213;BME280;29882;46.356;17.798;2022-07-15T04:52:27;99769.28;;;21.36;92.33
44213;BME280;29882;46.356;17.798;2022-07-15T04:54:54;99772.03;;;21.36;93.10
44213;BME280;29882;46.356;17.798;2022-07-15T04:57:22;99778.25;;;21.43;93.03
44213;BME280;29882;46.356;17.798;2022-07-15T04:59:49;99781.56;;;21.45;93.31
44213;BME280;29882;46.356;17.798;2022-07-15T05:02:17;99782.06;;;21.54;93.22
44213;BME280;29882;46.356;17.798;2022-07-15T05:04:47;99786.59;;;21.60;92.48
44213;BME280;29882;46.356;17.798;2022-07-15T05:07:16;99783.63;;;21.62;92.38
44213;BME280;29882;46.356;17.798;2022-07-15T05:09:44;99789.00;;;21.68;92.00
44213;BME280;29882;46.356;17.798;2022-07-15T05:12:12;99796.50;;;21.73;91.87
44213;BME280;29882;46.356;17.798;2022-07-15T05:14:52;99788.38;;;21.78;91.07
44213;BME280;29882;46.356;17.798;2022-07-15T05:17:20;99785.88;;;21.88;90.60
44213;BME280;29882;46.356;17.798;2022-07-15T05:19:47;99785.75;;;21.95;90.89
44213;BME280;29882;46.356;17.798;2022-07-15T05:22:20;99794.22;;;22.05;89.81
44213;BME280;29882;46.356;17.798;2022-07-15T05:24:48;99795.16;;;22.10;89.38
44213;BME280;29882;46.356;17.798;2022-07-15T05:27:15;99796.00;;;22.23;87.91
44213;BME280;29882;46.356;17.798;2022-07-15T05:29:46;99806.59;;;22.31;87.36
44213;BME280;29882;46.356;17.798;2022-07-15T05:32:15;99799.06;;;22.38;86.17
44213;BME280;29882;46.356;17.798;2022-07-15T05:34:44;99808.94;;;22.51;85.64
44213;BME280;29882;46.356;17.798;2022-07-15T05:37:15;99821.16;;;22.72;84.48
44213;BME280;29882;46.356;17.798;2022-07-15T05:39:42;99827.66;;;22.82;83.37
44213;BME280;29882;46.356;17.798;2022-07-15T05:42:28;99819.69;;;22.92;82.42
44213;BME280;29882;46.356;17.798;2022-07-15T05:44:56;99825.84;;;23.00;83.71
44213;BME280;29882;46.356;17.798;2022-07-15T05:47:24;99822.03;;;23.17;82.17
44213;BME280;29882;46.356;17.798;2022-07-15T05:49:51;99824.47;;;23.31;80.71
44213;BME280;29882;46.356;17.798;2022-07-15T05:52:19;99828.56;;;23.45;78.99
44213;BME280;29882;46.356;17.798;2022-07-15T05:54:46;99827.56;;;23.51;79.02
44213;BME280;29882;46.356;17.798;2022-07-15T05:57:13;99831.09;;;23.63;77.45
44213;BME280;29882;46.356;17.798;2022-07-15T05:59:41;99833.69;;;23.70;76.72
44213;BME280;29882;46.356;17.798;2022-07-15T06:02:08;99844.09;;;23.68;74.34
44213;BME280;29882;46.356;17.798;2022-07-15T06:04:37;99841.25;;;23.63;74.06
44213;BME280;29882;46.356;17.798;2022-07-15T06:07:06;99842.97;;;23.64;73.73
44213;BME280;29882;46.356;17.798;2022-07-15T06:09:33;99849.88;;;23.66;73.32
44213;BME280;29882;46.356;17.798;2022-07-15T06:12:00;99846.19;;;23.77;71.45
44213;BME280;29882;46.356;17.798;2022-07-15T06:14:29;99857.09;;;23.89;70.14
44213;BME280;29882;46.356;17.798;2022-07-15T06:17:07;99856.19;;;24.00;68.75
44213;BME280;29882;46.356;17.798;2022-07-15T06:19:35;99856.13;;;24.17;69.24
44213;BME280;29882;46.356;17.798;2022-07-15T06:22:02;99852.72;;;24.27;68.31
44213;BME280;29882;46.356;17.798;2022-07-15T06:24:29;99851.84;;;24.43;66.82
44213;BME280;29882;46.356;17.798;2022-07-15T06:26:57;99856.91;;;24.51;66.74
44213;BME280;29882;46.356;17.798;2022-07-15T06:29:24;99869.84;;;24.51;63.54
44213;BME280;29882;46.356;17.798;2022-07-15T06:31:54;99869.94;;;24.56;63.27
44213;BME280;29882;46.356;17.798;2022-07-15T06:34:21;99877.13;;;24.62;63.48
44213;BME280;29882;46.356;17.798;2022-07-15T06:36:48;99877.47;;;24.66;62.06
44213;BME280;29882;46.356;17.798;2022-07-15T06:39:17;99881.38;;;24.70;62.83
44213;BME280;29882;46.356;17.798;2022-07-15T06:41:44;99882.59;;;24.57;62.12
44213;BME280;29882;46.356;17.798;2022-07-15T06:44:13;99885.41;;;24.62;61.38
44213;BME280;29882;46.356;17.798;2022-07-15T06:46:45;99882.47;;;24.69;60.40
44213;BME280;29882;46.356;17.798;2022-07-15T06:49:13;99887.97;;;24.69;60.03
44213;BME280;29882;46.356;17.798;2022-07-15T06:51:40;99896.81;;;24.71;60.04
44213;BME280;29882;46.356;17.798;2022-07-15T06:54:08;99897.03;;;24.64;60.58
44213;BME280;29882;46.356;17.798;2022-07-15T06:56:38;99906.06;;;24.81;60.07
44213;BME280;29882;46.356;17.798;2022-07-15T06:59:05;99900.28;;;24.83;59.32
44213;BME280;29882;46.356;17.798;2022-07-15T07:01:52;99903.69;;;24.90;59.28
44213;BME280;29882;46.356;17.798;2022-07-15T07:04:56;99921.25;;;25.06;59.53
44213;BME280;29882;46.356;17.798;2022-07-15T07:07:23;99927.88;;;25.05;58.16
44213;BME280;29882;46.356;17.798;2022-07-15T07:09:52;99936.16;;;24.88;58.27
44213;BME280;29882;46.356;17.798;2022-07-15T07:12:20;99946.41;;;24.71;58.55
44213;BME280;29882;46.356;17.798;2022-07-15T07:14:47;99948.41;;;24.53;58.93
44213;BME280;29882;46.356;17.798;2022-07-15T07:17:14;99942.25;;;24.46;59.26
44213;BME280;29882;46.356;17.798;2022-07-15T07:19:41;99944.66;;;24.43;59.60
44213;BME280;29882;46.356;17.798;2022-07-15T07:22:09;99946.13;;;24.50;59.41
44213;BME280;29882;46.356;17.798;2022-07-15T07:24:36;99946.44;;;24.32;60.10
44213;BME280;29882;46.356;17.798;2022-07-15T07:27:03;99950.94;;;24.38;60.14
44213;BME280;29882;46.356;17.798;2022-07-15T07:29:33;99941.06;;;24.42;59.62
44213;BME280;29882;46.356;17.798;2022-07-15T07:32:00;99951.38;;;24.52;59.25
44213;BME280;29882;46.356;17.798;2022-07-15T07:34:27;99949.25;;;24.54;60.22
44213;BME280;29882;46.356;17.798;2022-07-15T07:36:54;99957.13;;;24.67;59.84
44213;BME280;29882;46.356;17.798;2022-07-15T07:39:22;99952.72;;;24.88;59.95
44213;BME280;29882;46.356;17.798;2022-07-15T07:41:49;99957.38;;;25.04;58.92
44213;BME280;29882;46.356;17.798;2022-07-15T07:44:20;99957.84;;;25.23;58.26
44213;BME280;29882;46.356;17.798;2022-07-15T07:46:48;99971.47;;;25.30;56.96
44213;BME280;29882;46.356;17.798;2022-07-15T07:49:15;99962.53;;;25.23;56.43
44213;BME280;29882;46.356;17.798;2022-07-15T07:52:02;99979.00;;;24.96;56.94
44213;BME280;29882;46.356;17.798;2022-07-15T07:54:30;99982.19;;;24.87;56.70
44213;BME280;29882;46.356;17.798;2022-07-15T07:56:58;99992.28;;;24.99;56.67
44213;BME280;29882;46.356;17.798;2022-07-15T07:59:25;99982.59;;;24.96;56.78
44213;BME280;29882;46.356;17.798;2022-07-15T08:01:57;99986.78;;;24.60;56.25
44213;BME280;29882;46.356;17.798;2022-07-15T08:04:24;99983.53;;;24.85;56.56
44213;BME280;29882;46.356;17.798;2022-07-15T08:06:52;99993.34;;;24.98;56.76
44213;BME280;29882;46.356;17.798;2022-07-15T08:09:19;99992.72;;;24.90;56.99
44213;BME280;29882;46.356;17.798;2022-07-15T08:11:47;99995.38;;;25.02;56.80
44213;BME280;29882;46.356;17.798;2022-07-15T08:14:15;100008.06;;;25.03;56.29
44213;BME280;29882;46.356;17.798;2022-07-15T08:16:42;100010.41;;;24.95;56.48
44213;BME280;29882;46.356;17.798;2022-07-15T08:19:10;100018.72;;;24.78;57.87
44213;BME280;29882;46.356;17.798;2022-07-15T08:21:43;100019.25;;;24.75;57.65
44213;BME280;29882;46.356;17.798;2022-07-15T08:24:10;100023.09;;;24.74;58.46
44213;BME280;29882;46.356;17.798;2022-07-15T08:26:39;100018.16;;;24.25;59.13
44213;BME280;29882;46.356;17.798;2022-07-15T08:29:07;100024.19;;;24.39;60.01
44213;BME280;29882;46.356;17.798;2022-07-15T08:31:35;100027.53;;;24.58;58.99
44213;BME280;29882;46.356;17.798;2022-07-15T08:34:04;100025.84;;;24.57;58.46
44213;BME280;29882;46.356;17.798;2022-07-15T08:36:32;100022.09;;;24.63;59.17
44213;BME280;29882;46.356;17.798;2022-07-15T08:38:59;100021.34;;;24.68;58.92
44213;BME280;29882;46.356;17.798;2022-07-15T08:41:27;100030.69;;;24.67;57.70
44213;BME280;29882;46.356;17.798;2022-07-15T08:43:54;100020.72;;;24.82;57.07
44213;BME280;29882;46.356;17.798;2022-07-15T08:46:23;100019.50;;;24.95;57.08
44213;BME280;29882;46.356;17.798;2022-07-15T08:48:57;100035.66;;;24.86;57.13
44213;BME280;29882;46.356;17.798;2022-07-15T08:51:26;100037.31;;;25.04;57.12
44213;BME280;29882;46.356;17.798;2022-07-15T08:53:54;100037.56;;;25.25;55.69
44213;BME280;29882;46.356;17.798;2022-07-15T08:56:23;100038.59;;;25.40;55.69
44213;BME280;29882;46.356;17.798;2022-07-15T08:58:50;100037.78;;;25.40;55.22
44213;BME280;29882;46.356;17.798;2022-07-15T09:01:31;100049.50;;;25.52;55.42
44213;BME280;29882;46.356;17.798;2022-07-15T09:03:59;100043.56;;;25.87;55.27
44213;BME280;29882;46.356;17.798;2022-07-15T09:06:41;100053.31;;;25.95;54.64
44213;BME280;29882;46.356;17.798;2022-07-15T09:09:25;100056.41;;;25.71;54.42
44213;BME280;29882;46.356;17.798;2022-07-15T09:14:31;100049.63;;;25.84;54.02
44213;BME280;29882;46.356;17.798;2022-07-15T09:17:06;100056.50;;;26.09;52.91
44213;BME280;29882;46.356;17.798;2022-07-15T09:20:02;100061.31;;;26.23;53.01
44213;BME280;29882;46.356;17.798;2022-07-15T09:22:34;100062.22;;;26.02;53.24
44213;BME280;29882;46.356;17.798;2022-07-15T09:25:13;100060.13;;;26.14;54.16
44213;BME280;29882;46.356;17.798;2022-07-15T09:27:42;100070.41;;;26.19;53.04
44213;BME280;29882;46.356;17.798;2022-07-15T09:30:47;100069.25;;;25.88;53.42
44213;BME280;29882;46.356;17.798;2022-07-15T09:33:35;100084.91;;;26.36;52.46
44213;BME280;29882;46.356;17.798;2022-07-15T09:41:28;100079.66;;;25.59;53.32
44213;BME280;29882;46.356;17.798;2022-07-15T09:43:57;100085.34;;;25.52;54.35
44213;BME280;29882;46.356;17.798;2022-07-15T09:46:55;100079.28;;;25.28;54.56
44213;BME280;29882;46.356;17.798;2022-07-15T09:52:12;100083.97;;;25.50;53.16
44213;BME280;29882;46.356;17.798;2022-07-15T09:54:48;100090.81;;;25.25;53.25
44213;BME280;29882;46.356;17.798;2022-07-15T09:57:17;100089.56;;;25.16;53.68
44213;BME280;29882;46.356;17.798;2022-07-15T09:59:47;100089.91;;;25.19;53.99
44213;BME280;29882;46.356;17.798;2022-07-15T10:02:15;100092.56;;;25.53;53.84
44213;BME280;29882;46.356;17.798;2022-07-15T10:04:43;100092.00;;;25.73;53.71
44213;BME280;29882;46.356;17.798;2022-07-15T10:07:12;100087.81;;;25.92;53.59
44213;BME280;29882;46.356;17.798;2022-07-15T10:09:58;100092.41;;;26.09;53.61
44213;BME280;29882;46.356;17.798;2022-07-15T10:15:30;100096.34;;;26.18;52.53
44213;BME280;29882;46.356;17.798;2022-07-15T10:21:16;100094.69;;;26.44;51.34
44213;BME280;29882;46.356;17.798;2022-07-15T10:27:05;100096.41;;;26.87;50.29
44213;BME280;29882;46.356;17.798;2022-07-15T10:29:37;100094.59;;;27.03;50.58
44213;BME280;29882;46.356;17.798;2022-07-15T10:32:04;100091.72;;;26.93;49.98
44213;BME280;29882;46.356;17.798;2022-07-15T10:34:37;100093.34;;;26.83;50.27
44213;BME280;29882;46.356;17.798;2022-07-15T10:37:07;100090.75;;;27.09;49.07
44213;BME280;29882;46.356;17.798;2022-07-15T10:42:23;100081.16;;;26.84;48.72
44213;BME280;29882;46.356;17.798;2022-07-15T10:47:29;100088.13;;;26.92;47.20
44213;BME280;29882;46.356;17.798;2022-07-15T10:49:57;100091.09;;;26.80;48.05
44213;BME280;29882;46.356;17.798;2022-07-15T10:52:25;100091.41;;;26.84;47.31
44213;BME280;29882;46.356;17.798;2022-07-15T11:03:09;100082.41;;;27.56;45.42
44213;BME280;29882;46.356;17.798;2022-07-15T11:13:44;100079.03;;;28.37;43.42
44213;BME280;29882;46.356;17.798;2022-07-15T11:16:12;100080.19;;;28.41;43.03
44213;BME280;29882;46.356;17.798;2022-07-15T11:18:51;100070.72;;;28.47;43.15
44213;BME280;29882;46.356;17.798;2022-07-15T11:21:19;100070.16;;;28.25;42.08
44213;BME280;29882;46.356;17.798;2022-07-15T11:23:49;100077.13;;;28.58;41.95
44213;BME280;29882;46.356;17.798;2022-07-15T11:26:18;100066.56;;;28.80;41.71
44213;BME280;29882;46.356;17.798;2022-07-15T11:28:53;100067.09;;;28.93;41.02
44213;BME280;29882;46.356;17.798;2022-07-15T11:31:24;100066.88;;;28.59;41.22
44213;BME280;29882;46.356;17.798;2022-07-15T11:33:54;100062.41;;;28.58;41.31
44213;BME280;29882;46.356;17.798;2022-07-15T11:36:24;100064.66;;;28.50;40.95
44213;BME280;29882;46.356;17.798;2022-07-15T11:38:52;100066.00;;;28.22;41.24
44213;BME280;29882;46.356;17.798;2022-07-15T11:41:20;100058.25;;;28.24;42.10
44213;BME280;29882;46.356;17.798;2022-07-15T11:44:11;100059.38;;;28.54;42.27
44213;BME280;29882;46.356;17.798;2022-07-15T11:46:59;100046.91;;;28.67;42.63
44213;BME280;29882;46.356;17.798;2022-07-15T11:49:29;100046.91;;;28.67;41.75
44213;BME280;29882;46.356;17.798;2022-07-15T11:51:58;100050.75;;;28.86;40.87
44213;BME280;29882;46.356;17.798;2022-07-15T11:54:25;100041.91;;;28.48;38.57
44213;BME280;29882;46.356;17.798;2022-07-15T11:56:58;100052.97;;;28.94;38.37
44213;BME280;29882;46.356;17.798;2022-07-15T11:59:26;100045.63;;;29.29;37.22
44213;BME280;29882;46.356;17.798;2022-07-15T12:02:11;100048.88;;;29.56;36.90
44213;BME280;29882;46.356;17.798;2022-07-15T12:04:40;100057.94;;;29.77;36.80
44213;BME280;29882;46.356;17.798;2022-07-15T12:07:09;100057.19;;;30.06;36.86
44213;BME280;29882;46.356;17.798;2022-07-15T12:12:11;100059.66;;;29.68;36.49
44213;BME280;29882;46.356;17.798;2022-07-15T12:14:39;100055.03;;;29.98;35.94
44213;BME280;29882;46.356;17.798;2022-07-15T12:17:07;100061.84;;;29.71;35.21
44213;BME280;29882;46.356;17.798;2022-07-15T12:19:36;100069.22;;;29.31;36.06
44213;BME280;29882;46.356;17.798;2022-07-15T12:22:09;100065.88;;;29.39;35.96
44213;BME280;29882;46.356;17.798;2022-07-15T12:24:41;100072.34;;;29.15;36.33
44213;BME280;29882;46.356;17.798;2022-07-15T12:27:12;100078.22;;;28.72;36.92
44213;BME280;29882;46.356;17.798;2022-07-15T12:29:40;100075.16;;;28.79;37.43
44213;BME280;29882;46.356;17.798;2022-07-15T12:32:29;100066.69;;;29.50;36.85
44213;BME280;29882;46.356;17.798;2022-07-15T12:34:58;100054.88;;;29.79;36.20
44213;BME280;29882;46.356;17.798;2022-07-15T12:40:03;100067.03;;;30.32;35.65
44213;BME280;29882;46.356;17.798;2022-07-15T12:50:24;100063.25;;;29.68;35.63
44213;BME280;29882;46.356;17.798;2022-07-15T12:52:54;100066.09;;;30.47;34.97
44213;BME280;29882;46.356;17.798;2022-07-15T12:55:28;100061.19;;;30.97;33.97
44213;BME280;29882;46.356;17.798;2022-07-15T12:58:14;100061.50;;;30.66;33.93
44213;BME280;29882;46.356;17.798;2022-07-15T13:00:44;100053.88;;;31.30;33.53
44213;BME280;29882;46.356;17.798;2022-07-15T13:03:16;100055.19;;;31.80;33.42
44213;BME280;29882;46.356;17.798;2022-07-15T13:05:55;100052.09;;;32.38;32.65
44213;BME280;29882;46.356;17.798;2022-07-15T13:08:24;100063.97;;;32.76;32.29
44213;BME280;29882;46.356;17.798;2022-07-15T13:10:55;100058.56;;;32.99;31.42
44213;BME280;29882;46.356;17.798;2022-07-15T13:13:25;100056.44;;;33.37;31.49
44213;BME280;29882;46.356;17.798;2022-07-15T13:15:55;100056.09;;;33.11;31.05
44213;BME280;29882;46.356;17.798;2022-07-15T13:18:22;100059.22;;;32.77;31.65
44213;BME280;29882;46.356;17.798;2022-07-15T13:20:53;100059.16;;;32.96;31.51
44213;BME280;29882;46.356;17.798;2022-07-15T13:23:21;100059.53;;;32.75;31.31
44213;BME280;29882;46.356;17.798;2022-07-15T13:25:49;100051.44;;;33.20;30.86
44213;BME280;29882;46.356;17.798;2022-07-15T13:28:18;100061.38;;;32.66;31.43
44213;BME280;29882;46.356;17.798;2022-07-15T13:30:45;100060.28;;;32.81;31.28
44213;BME280;29882;46.356;17.798;2022-07-15T13:33:13;100051.41;;;32.28;30.95
44213;BME280;29882;46.356;17.798;2022-07-15T13:35:40;100055.06;;;31.24;32.18
44213;BME280;29882;46.356;17.798;2022-07-15T13:38:08;100048.72;;;31.42;31.98
44213;BME280;29882;46.356;17.798;2022-07-15T13:40:35;100048.00;;;31.55;31.51
44213;BME280;29882;46.356;17.798;2022-07-15T13:43:03;100043.91;;;31.48;31.45
44213;BME280;29882;46.356;17.798;2022-07-15T13:45:30;100052.75;;;31.74;31.63
44213;BME280;29882;46.356;17.798;2022-07-15T13:47:59;100041.97;;;31.48;32.08
44213;BME280;29882;46.356;17.798;2022-07-15T13:50:26;100041.97;;;31.24;31.78
44213;BME280;29882;46.356;17.798;2022-07-15T13:53:13;100049.56;;;31.61;31.43
44213;BME280;29882;46.356;17.798;2022-07-15T13:55:41;100035.03;;;31.46;31.39
44213;BME280;29882;46.356;17.798;2022-07-15T13:58:10;100039.41;;;31.71;31.07